createdAt,value
2022-12-11T00:00:05.559Z,17.10
2022-12-11T00:00:15.583Z,15.70
2022-12-11T00:00:25.633Z,14.60
2022-12-11T00:00:35.638Z,13.70
2022-12-11T00:00:45.563Z,14.10
2022-12-11T00:00:55.654Z,15.50
2022-12-11T00:01:05.621Z,15.10
2022-12-11T00:01:15.567Z,14.20
2022-12-11T00:01:25.603Z,13.30
2022-12-11T00:01:35.587Z,14.10
2022-12-11T00:01:45.613Z,14.90
2022-12-11T00:01:55.676Z,16.10
2022-12-11T00:02:05.596Z,16.50
2022-12-11T00:02:15.590Z,17.20
2022-12-11T00:02:25.703Z,16.00
2022-12-11T00:02:35.631Z,15.40
2022-12-11T00:02:45.636Z,18.00
2022-12-11T00:02:55.690Z,18.40
2022-12-11T00:03:05.589Z,20.20
2022-12-11T00:03:16.422Z,17.70
2022-12-11T00:03:25.749Z,18.20
2022-12-11T00:03:35.574Z,17.10
2022-12-11T00:03:45.580Z,15.80
2022-12-11T00:03:55.655Z,16.00
2022-12-11T00:04:05.528Z,15.60
2022-12-11T00:04:15.552Z,16.00
2022-12-11T00:04:25.528Z,15.00
2022-12-11T00:04:35.611Z,14.50
2022-12-11T00:04:45.623Z,14.90
2022-12-11T00:04:55.637Z,16.90
2022-12-11T00:05:05.654Z,16.90
2022-12-11T00:05:15.657Z,16.50
2022-12-11T00:05:25.549Z,17.90
2022-12-11T00:05:35.639Z,19.00
2022-12-11T00:05:45.587Z,19.50
2022-12-11T00:05:55.571Z,17.80
2022-12-11T00:06:05.648Z,17.40
2022-12-11T00:06:15.619Z,15.80
2022-12-11T00:06:25.609Z,15.10
2022-12-11T00:06:35.572Z,14.70
2022-12-11T00:06:45.647Z,17.00
2022-12-11T00:06:55.627Z,17.60
2022-12-11T00:07:05.550Z,17.50
2022-12-11T00:07:15.538Z,15.90
2022-12-11T00:07:25.557Z,15.10
2022-12-11T00:07:35.556Z,16.40
2022-12-11T00:07:45.614Z,17.20
2022-12-11T00:07:55.569Z,17.20
2022-12-11T00:08:05.629Z,15.60
2022-12-11T00:08:15.651Z,14.90
2022-12-11T00:08:25.684Z,14.90
2022-12-11T00:08:35.564Z,15.90
2022-12-11T00:08:45.581Z,17.40
2022-12-11T00:08:55.592Z,17.80
2022-12-11T00:09:05.554Z,17.40
2022-12-11T00:09:15.562Z,16.20
2022-12-11T00:09:25.599Z,16.70
2022-12-11T00:09:35.528Z,17.50
2022-12-11T00:09:45.549Z,18.50
2022-12-11T00:09:55.645Z,17.80
2022-12-11T00:10:05.534Z,17.80
2022-12-11T00:10:15.642Z,17.10
2022-12-11T00:10:25.583Z,17.00
2022-12-11T00:10:38.020Z,14.70
2022-12-11T00:10:45.649Z,14.50
2022-12-11T00:10:55.554Z,13.60
2022-12-11T00:11:05.577Z,15.50
2022-12-11T00:11:15.525Z,15.00
2022-12-11T00:11:25.629Z,17.80
2022-12-11T00:11:35.579Z,18.10
2022-12-11T00:11:45.553Z,18.40
2022-12-11T00:11:55.537Z,16.30
2022-12-11T00:12:05.524Z,14.20
2022-12-11T00:12:15.556Z,15.10
2022-12-11T00:12:25.534Z,15.30
2022-12-11T00:12:35.543Z,17.80
2022-12-11T00:12:45.528Z,17.40
2022-12-11T00:12:55.640Z,17.70
2022-12-11T00:13:05.648Z,15.80
2022-12-11T00:13:15.524Z,14.80
2022-12-11T00:13:25.530Z,14.80
2022-12-11T00:13:35.638Z,16.20
2022-12-11T00:13:45.644Z,17.00
2022-12-11T00:13:55.654Z,17.20
2022-12-11T00:14:05.548Z,15.90
2022-12-11T00:14:15.558Z,17.60
2022-12-11T00:14:25.658Z,18.10
2022-12-11T00:14:35.544Z,20.00
2022-12-11T00:14:45.617Z,19.20
2022-12-11T00:14:55.607Z,18.40
2022-12-11T00:15:05.592Z,16.60
2022-12-11T00:15:15.614Z,14.10
2022-12-11T00:15:25.619Z,13.50
2022-12-11T00:15:35.594Z,14.70
2022-12-11T00:15:45.633Z,17.30
2022-12-11T00:15:55.555Z,18.00
2022-12-11T00:16:05.655Z,18.50
2022-12-11T00:16:15.713Z,16.40
2022-12-11T00:16:27.235Z,15.60
2022-12-11T00:16:35.639Z,14.90
2022-12-11T00:16:45.624Z,16.80
2022-12-11T00:16:55.599Z,16.60
2022-12-11T00:17:05.647Z,15.40
2022-12-11T00:17:15.578Z,14.00
2022-12-11T00:17:25.635Z,14.30
2022-12-11T00:17:35.657Z,14.70
2022-12-11T00:17:45.561Z,15.10
2022-12-11T00:18:00.519Z,16.20
2022-12-11T00:18:05.657Z,16.10
2022-12-11T00:18:15.525Z,16.40
2022-12-11T00:18:25.531Z,17.20
2022-12-11T00:18:35.624Z,17.50
2022-12-11T00:18:45.658Z,17.00
2022-12-11T00:18:55.565Z,15.30
2022-12-11T00:19:05.577Z,15.90
2022-12-11T00:19:15.568Z,14.40
2022-12-11T00:19:25.604Z,16.00
2022-12-11T00:19:35.630Z,15.30
2022-12-11T00:19:45.577Z,16.80
2022-12-11T00:19:55.656Z,16.20
2022-12-11T00:20:05.552Z,16.60
2022-12-11T00:20:15.537Z,16.80
2022-12-11T00:20:25.656Z,16.40
2022-12-11T00:20:35.658Z,16.00
2022-12-11T00:20:45.579Z,15.40
2022-12-11T00:20:55.560Z,15.40
2022-12-11T00:21:05.539Z,16.30
2022-12-11T00:21:15.549Z,17.20
2022-12-11T00:21:25.558Z,17.40
2022-12-11T00:21:35.638Z,16.40
2022-12-11T00:21:45.541Z,15.60
2022-12-11T00:21:55.626Z,15.80
2022-12-11T00:22:05.574Z,16.10
2022-12-11T00:22:15.601Z,15.00
2022-12-11T00:22:25.645Z,15.10
2022-12-11T00:22:35.668Z,16.60
2022-12-11T00:22:45.545Z,17.70
2022-12-11T00:22:55.640Z,18.30
2022-12-11T00:23:05.554Z,16.80
2022-12-11T00:23:15.649Z,17.90
2022-12-11T00:23:25.567Z,18.50
2022-12-11T00:23:35.648Z,19.50
2022-12-11T00:23:45.525Z,18.60
2022-12-11T00:23:55.645Z,17.90
2022-12-11T00:24:05.622Z,16.50
2022-12-11T00:24:15.524Z,18.20
2022-12-11T00:24:25.524Z,18.00
2022-12-11T00:24:35.660Z,17.80
2022-12-11T00:24:45.544Z,16.30
2022-12-11T00:24:55.618Z,15.60
2022-12-11T00:25:05.607Z,16.30
2022-12-11T00:25:15.534Z,15.70
2022-12-11T00:25:25.648Z,15.00
2022-12-11T00:25:35.535Z,14.20
2022-12-11T00:25:45.648Z,13.80
2022-12-11T00:25:55.660Z,15.30
2022-12-11T00:26:05.626Z,15.90
2022-12-11T00:26:15.552Z,16.60
2022-12-11T00:26:25.525Z,17.10
2022-12-11T00:26:35.644Z,16.80
2022-12-11T00:26:45.600Z,17.20
2022-12-11T00:26:55.620Z,17.80
2022-12-11T00:27:05.601Z,19.60
2022-12-11T00:27:15.575Z,19.50
2022-12-11T00:27:25.597Z,20.20
2022-12-11T00:27:35.554Z,20.70
2022-12-11T00:27:45.643Z,24.40
2022-12-11T00:27:56.167Z,27.70
2022-12-11T00:28:05.653Z,33.80
2022-12-11T00:28:15.655Z,35.50
2022-12-11T00:28:25.635Z,33.50
2022-12-11T00:28:35.618Z,28.80
2022-12-11T00:28:45.598Z,27.10
2022-12-11T00:28:55.554Z,25.40
2022-12-11T00:29:05.525Z,25.20
2022-12-11T00:29:15.554Z,22.20
2022-12-11T00:29:25.650Z,22.70
2022-12-11T00:29:35.572Z,21.90
2022-12-11T00:29:45.666Z,23.30
2022-12-11T00:29:55.568Z,21.50
2022-12-11T00:30:05.561Z,21.50
2022-12-11T00:30:15.623Z,18.70
2022-12-11T00:30:25.541Z,18.90
2022-12-11T00:30:35.655Z,16.70
2022-12-11T00:30:45.612Z,18.40
2022-12-11T00:30:55.600Z,17.90
2022-12-11T00:31:05.554Z,18.70
2022-12-11T00:31:15.643Z,16.80
2022-12-11T00:31:25.680Z,15.90
2022-12-11T00:31:35.684Z,14.80
2022-12-11T00:31:45.642Z,16.60
2022-12-11T00:31:55.718Z,17.60
2022-12-11T00:32:05.581Z,16.90
2022-12-11T00:32:15.593Z,15.10
2022-12-11T00:32:28.213Z,14.40
2022-12-11T00:32:37.707Z,14.70
2022-12-11T00:32:45.548Z,16.40
2022-12-11T00:32:55.554Z,17.60
2022-12-11T00:33:05.635Z,17.70
2022-12-11T00:33:15.575Z,16.00
2022-12-11T00:33:25.648Z,15.30
2022-12-11T00:33:35.577Z,14.90
2022-12-11T00:33:45.551Z,15.60
2022-12-11T00:33:55.618Z,16.30
2022-12-11T00:34:05.636Z,16.80
2022-12-11T00:34:15.600Z,16.90
2022-12-11T00:34:25.647Z,16.80
2022-12-11T00:34:35.659Z,16.30
2022-12-11T00:34:45.579Z,16.50
2022-12-11T00:34:55.648Z,15.30
2022-12-11T00:35:05.612Z,16.10
2022-12-11T00:35:15.555Z,14.70
2022-12-11T00:35:25.521Z,14.60
2022-12-11T00:35:35.650Z,15.40
2022-12-11T00:35:45.534Z,17.20
2022-12-11T00:35:55.537Z,16.70
2022-12-11T00:36:05.579Z,15.00
2022-12-11T00:36:15.594Z,16.20
2022-12-11T00:36:25.540Z,16.90
2022-12-11T00:36:35.566Z,17.00
2022-12-11T00:36:45.534Z,14.10
2022-12-11T00:36:55.564Z,15.40
2022-12-11T00:37:05.597Z,16.40
2022-12-11T00:37:15.602Z,17.50
2022-12-11T00:37:25.632Z,18.80
2022-12-11T00:37:35.618Z,19.00
2022-12-11T00:37:45.574Z,17.70
2022-12-11T00:37:56.173Z,15.70
2022-12-11T00:38:05.550Z,17.00
2022-12-11T00:38:15.554Z,19.00
2022-12-11T00:38:25.530Z,20.50
2022-12-11T00:38:35.588Z,18.40
2022-12-11T00:38:45.607Z,18.00
2022-12-11T00:38:55.526Z,15.20
2022-12-11T00:39:05.541Z,15.90
2022-12-11T00:39:15.591Z,15.60
2022-12-11T00:39:25.547Z,18.40
2022-12-11T00:39:35.615Z,18.30
2022-12-11T00:39:45.575Z,18.50
2022-12-11T00:39:55.680Z,18.10
2022-12-11T00:40:05.539Z,17.20
2022-12-11T00:40:15.546Z,17.90
2022-12-11T00:40:25.559Z,16.10
2022-12-11T00:40:35.564Z,15.80
2022-12-11T00:40:45.570Z,14.00
2022-12-11T00:40:55.643Z,13.80
2022-12-11T00:41:05.655Z,15.10
2022-12-11T00:41:15.628Z,17.50
2022-12-11T00:41:25.535Z,17.40
2022-12-11T00:41:35.558Z,15.70
2022-12-11T00:41:45.615Z,15.20
2022-12-11T00:41:55.635Z,16.70
2022-12-11T00:42:05.635Z,16.60
2022-12-11T00:42:15.541Z,16.00
2022-12-11T00:42:25.558Z,14.50
2022-12-11T00:42:35.614Z,15.00
2022-12-11T00:42:45.621Z,14.70
2022-12-11T00:42:55.612Z,15.20
2022-12-11T00:43:05.538Z,16.10
2022-12-11T00:43:15.569Z,14.80
2022-12-11T00:43:25.540Z,14.30
2022-12-11T00:43:35.564Z,13.60
2022-12-11T00:43:45.550Z,15.30
2022-12-11T00:43:55.523Z,16.00
2022-12-11T00:44:05.581Z,16.20
2022-12-11T00:44:15.602Z,16.10
2022-12-11T00:44:25.567Z,15.00
2022-12-11T00:44:35.624Z,14.40
2022-12-11T00:44:45.609Z,13.20
2022-12-11T00:44:55.604Z,13.80
2022-12-11T00:45:05.524Z,14.00
2022-12-11T00:45:15.618Z,14.50
2022-12-11T00:45:25.591Z,13.80
2022-12-11T00:45:35.662Z,13.10
2022-12-11T00:45:45.687Z,14.90
2022-12-11T00:45:55.679Z,15.20
2022-12-11T00:46:05.628Z,15.60
2022-12-11T00:46:15.669Z,16.00
2022-12-11T00:46:25.675Z,16.30
2022-12-11T00:46:35.642Z,16.60
2022-12-11T00:46:45.600Z,14.90
2022-12-11T00:46:55.562Z,15.00
2022-12-11T00:47:05.560Z,15.80
2022-12-11T00:47:15.528Z,16.50
2022-12-11T00:47:25.598Z,17.80
2022-12-11T00:47:35.610Z,17.50
2022-12-11T00:47:45.587Z,16.10
2022-12-11T00:47:58.526Z,13.90
2022-12-11T00:48:05.629Z,14.00
2022-12-11T00:48:15.609Z,15.10
2022-12-11T00:48:25.627Z,15.00
2022-12-11T00:48:35.634Z,14.90
2022-12-11T00:48:45.642Z,13.90
2022-12-11T00:48:55.608Z,14.40
2022-12-11T00:49:05.528Z,14.30
2022-12-11T00:49:15.577Z,15.10
2022-12-11T00:49:25.647Z,15.50
2022-12-11T00:49:35.599Z,16.20
2022-12-11T00:49:49.770Z,15.60
2022-12-11T00:49:58.116Z,16.40
2022-12-11T00:50:05.531Z,16.10
2022-12-11T00:50:15.600Z,15.40
2022-12-11T00:50:25.611Z,13.90
2022-12-11T00:50:35.547Z,14.30
2022-12-11T00:50:45.548Z,14.30
2022-12-11T00:50:55.567Z,14.30
2022-12-11T00:51:05.639Z,14.80
2022-12-11T00:51:15.648Z,15.50
2022-12-11T00:51:25.620Z,15.90
2022-12-11T00:51:35.557Z,14.80
2022-12-11T00:51:45.651Z,15.00
2022-12-11T00:51:55.600Z,14.40
2022-12-11T00:52:05.552Z,17.10
2022-12-11T00:52:15.622Z,15.20
2022-12-11T00:52:25.565Z,15.40
2022-12-11T00:52:35.607Z,11.30
2022-12-11T00:52:45.540Z,13.10
2022-12-11T00:52:55.573Z,12.20
2022-12-11T00:53:05.624Z,13.80
2022-12-11T00:53:15.538Z,14.20
2022-12-11T00:53:25.540Z,14.90
2022-12-11T00:53:35.603Z,13.70
2022-12-11T00:53:45.647Z,12.30
2022-12-11T00:53:55.530Z,12.40
2022-12-11T00:54:05.552Z,13.90
2022-12-11T00:54:15.531Z,14.50
2022-12-11T00:54:25.611Z,13.50
2022-12-11T00:54:35.550Z,13.90
2022-12-11T00:54:45.537Z,13.90
2022-12-11T00:54:55.572Z,15.60
2022-12-11T00:55:05.611Z,15.80
2022-12-11T00:55:15.575Z,15.90
2022-12-11T00:55:25.536Z,14.70
2022-12-11T00:55:35.651Z,14.60
2022-12-11T00:55:45.656Z,16.10
2022-12-11T00:55:55.652Z,16.60
2022-12-11T00:56:05.555Z,15.80
2022-12-11T00:56:15.582Z,14.40
2022-12-11T00:56:25.602Z,14.00
2022-12-11T00:56:35.581Z,13.90
2022-12-11T00:56:45.585Z,14.00
2022-12-11T00:56:55.656Z,14.90
2022-12-11T00:57:05.543Z,15.70
2022-12-11T00:57:15.613Z,16.40
2022-12-11T00:57:25.638Z,16.80
2022-12-11T00:57:35.574Z,17.00
2022-12-11T00:57:45.640Z,17.10
2022-12-11T00:57:55.667Z,16.90
2022-12-11T00:58:05.567Z,16.30
2022-12-11T00:58:15.645Z,15.60
2022-12-11T00:58:25.616Z,14.50
2022-12-11T00:58:35.546Z,15.10
2022-12-11T00:58:45.576Z,15.70
2022-12-11T00:58:55.648Z,17.60
2022-12-11T00:59:05.556Z,16.30
2022-12-11T00:59:15.549Z,17.10
2022-12-11T00:59:25.544Z,15.00
2022-12-11T00:59:35.651Z,16.90
2022-12-11T00:59:45.523Z,15.80
2022-12-11T00:59:55.602Z,17.40
2022-12-11T01:00:05.588Z,19.20
2022-12-11T01:00:15.544Z,18.30
2022-12-11T01:00:25.593Z,18.30
2022-12-11T01:00:35.586Z,15.50
2022-12-11T01:00:45.609Z,15.80
2022-12-11T01:00:55.570Z,15.00
2022-12-11T01:01:05.649Z,15.60
2022-12-11T01:01:15.654Z,16.70
2022-12-11T01:01:25.665Z,18.10
2022-12-11T01:01:35.666Z,16.80
2022-12-11T01:01:45.583Z,15.20
2022-12-11T01:01:55.538Z,15.00
2022-12-11T01:02:05.650Z,15.10
2022-12-11T01:02:15.604Z,15.50
2022-12-11T01:02:25.729Z,13.70
2022-12-11T01:02:35.713Z,13.90
2022-12-11T01:02:45.655Z,14.80
2022-12-11T01:02:55.667Z,14.60
2022-12-11T01:03:05.556Z,15.10
2022-12-11T01:03:15.651Z,15.90
2022-12-11T01:03:25.638Z,16.20
2022-12-11T01:03:35.570Z,16.00
2022-12-11T01:03:45.572Z,14.60
2022-12-11T01:03:55.628Z,14.60
2022-12-11T01:04:05.583Z,15.00
2022-12-11T01:04:15.629Z,14.40
2022-12-11T01:04:25.644Z,13.70
2022-12-11T01:04:35.549Z,13.40
2022-12-11T01:04:45.637Z,13.10
2022-12-11T01:04:55.551Z,15.40
2022-12-11T01:05:05.577Z,16.10
2022-12-11T01:05:15.525Z,17.20
2022-12-11T01:05:25.652Z,15.00
2022-12-11T01:05:35.545Z,14.80
2022-12-11T01:05:45.573Z,16.70
2022-12-11T01:05:55.583Z,17.20
2022-12-11T01:06:05.570Z,17.80
2022-12-11T01:06:15.654Z,15.90
2022-12-11T01:06:25.541Z,16.50
2022-12-11T01:06:35.575Z,17.30
2022-12-11T01:06:45.644Z,18.80
2022-12-11T01:06:55.565Z,18.60
2022-12-11T01:07:05.627Z,17.60
2022-12-11T01:07:15.659Z,15.90
2022-12-11T01:07:25.585Z,16.50
2022-12-11T01:07:35.617Z,16.70
2022-12-11T01:07:45.697Z,17.90
2022-12-11T01:07:56.207Z,18.20
2022-12-11T01:08:05.703Z,17.40
2022-12-11T01:08:15.730Z,15.60
2022-12-11T01:08:25.689Z,15.60
2022-12-11T01:08:38.743Z,16.40
2022-12-11T01:08:45.644Z,17.80
2022-12-11T01:08:55.538Z,16.60
2022-12-11T01:09:05.660Z,15.90
2022-12-11T01:09:15.555Z,14.70
2022-12-11T01:09:25.646Z,14.00
2022-12-11T01:09:35.635Z,13.40
2022-12-11T01:09:45.605Z,14.00
2022-12-11T01:09:55.568Z,14.30
2022-12-11T01:10:05.630Z,14.40
2022-12-11T01:10:15.640Z,14.20
2022-12-11T01:10:25.760Z,15.30
2022-12-11T01:10:35.599Z,15.20
2022-12-11T01:10:45.626Z,15.90
2022-12-11T01:10:55.639Z,15.60
2022-12-11T01:11:05.655Z,15.80
2022-12-11T01:11:15.586Z,15.90
2022-12-11T01:11:25.585Z,15.80
2022-12-11T01:11:35.538Z,15.50
2022-12-11T01:11:45.534Z,15.60
2022-12-11T01:11:55.606Z,15.20
2022-12-11T01:12:05.565Z,15.80
2022-12-11T01:12:15.619Z,16.40
2022-12-11T01:12:25.569Z,17.70
2022-12-11T01:12:35.568Z,18.50
2022-12-11T01:12:45.587Z,18.40
2022-12-11T01:12:55.649Z,17.80
2022-12-11T01:13:05.573Z,16.60
2022-12-11T01:13:15.621Z,14.90
2022-12-11T01:13:25.658Z,15.00
2022-12-11T01:13:35.580Z,15.50
2022-12-11T01:13:45.526Z,17.00
2022-12-11T01:13:55.646Z,17.50
2022-12-11T01:14:05.650Z,18.90
2022-12-11T01:14:15.596Z,18.70
2022-12-11T01:14:25.540Z,18.60
2022-12-11T01:14:35.593Z,16.10
2022-12-11T01:14:45.650Z,14.70
2022-12-11T01:14:55.658Z,16.40
2022-12-11T01:15:05.597Z,18.00
2022-12-11T01:15:15.545Z,18.70
2022-12-11T01:15:25.606Z,16.10
2022-12-11T01:15:41.099Z,15.20
2022-12-11T01:15:45.575Z,16.00
2022-12-11T01:15:55.583Z,15.70
2022-12-11T01:16:05.653Z,14.30
2022-12-11T01:16:15.705Z,15.20
2022-12-11T01:16:25.611Z,17.00
2022-12-11T01:16:35.650Z,16.90
2022-12-11T01:16:45.633Z,14.80
2022-12-11T01:16:55.641Z,13.00
2022-12-11T01:17:05.645Z,15.30
2022-12-11T01:17:15.542Z,16.80
2022-12-11T01:17:25.575Z,16.40
2022-12-11T01:17:35.525Z,16.20
2022-12-11T01:17:45.607Z,15.80
2022-12-11T01:17:55.652Z,17.30
2022-12-11T01:18:05.604Z,18.10
2022-12-11T01:18:15.571Z,18.10
2022-12-11T01:18:25.619Z,18.40
2022-12-11T01:18:35.606Z,18.30
2022-12-11T01:18:45.621Z,17.70
2022-12-11T01:18:55.548Z,17.50
2022-12-11T01:19:05.559Z,17.60
2022-12-11T01:19:15.627Z,18.10
2022-12-11T01:19:25.536Z,18.40
2022-12-11T01:19:35.602Z,16.90
2022-12-11T01:19:45.658Z,17.40
2022-12-11T01:19:55.636Z,16.40
2022-12-11T01:20:05.626Z,17.60
2022-12-11T01:20:15.553Z,17.90
2022-12-11T01:20:25.648Z,18.50
2022-12-11T01:20:35.538Z,17.40
2022-12-11T01:20:45.637Z,16.50
2022-12-11T01:20:55.628Z,15.40
2022-12-11T01:21:05.588Z,16.00
2022-12-11T01:21:15.537Z,15.80
2022-12-11T01:21:25.633Z,16.50
2022-12-11T01:21:35.618Z,17.90
2022-12-11T01:21:45.625Z,19.60
2022-12-11T01:21:55.639Z,19.30
2022-12-11T01:22:05.565Z,16.60
2022-12-11T01:22:15.645Z,15.00
2022-12-11T01:22:25.574Z,15.70
2022-12-11T01:22:35.617Z,16.70
2022-12-11T01:22:45.530Z,18.50
2022-12-11T01:22:55.609Z,19.60
2022-12-11T01:23:05.542Z,21.10
2022-12-11T01:23:15.573Z,18.60
2022-12-11T01:23:25.587Z,17.10
2022-12-11T01:23:35.537Z,15.70
2022-12-11T01:23:45.537Z,17.20
2022-12-11T01:23:55.592Z,16.30
2022-12-11T01:24:05.609Z,16.70
2022-12-11T01:24:15.648Z,16.20
2022-12-11T01:24:25.591Z,17.00
2022-12-11T01:24:35.612Z,17.90
2022-12-11T01:24:45.620Z,17.70
2022-12-11T01:24:55.621Z,18.70
2022-12-11T01:25:05.551Z,17.20
2022-12-11T01:25:15.556Z,17.50
2022-12-11T01:25:25.645Z,18.30
2022-12-11T01:25:35.567Z,18.90
2022-12-11T01:25:45.579Z,18.00
2022-12-11T01:25:55.540Z,18.40
2022-12-11T01:26:05.581Z,19.90
2022-12-11T01:26:15.616Z,21.60
2022-12-11T01:26:25.598Z,18.40
2022-12-11T01:26:35.582Z,16.50
2022-12-11T01:26:45.669Z,16.30
2022-12-11T01:26:55.601Z,19.00
2022-12-11T01:27:05.596Z,19.40
2022-12-11T01:27:15.537Z,18.50
2022-12-11T01:27:25.622Z,16.30
2022-12-11T01:27:35.645Z,16.20
2022-12-11T01:27:45.626Z,15.90
2022-12-11T01:27:56.169Z,16.30
2022-12-11T01:28:05.637Z,18.90
2022-12-11T01:28:15.661Z,18.90
2022-12-11T01:28:25.609Z,19.40
2022-12-11T01:28:35.658Z,16.20
2022-12-11T01:28:45.557Z,15.60
2022-12-11T01:28:55.553Z,15.90
2022-12-11T01:29:05.593Z,16.80
2022-12-11T01:29:15.522Z,19.00
2022-12-11T01:29:25.594Z,19.10
2022-12-11T01:29:35.595Z,19.80
2022-12-11T01:29:45.528Z,18.00
2022-12-11T01:29:55.602Z,16.60
2022-12-11T01:30:05.590Z,16.00
2022-12-11T01:30:15.593Z,16.30
2022-12-11T01:30:25.602Z,18.90
2022-12-11T01:30:35.591Z,18.70
2022-12-11T01:30:45.763Z,18.20
2022-12-11T01:30:55.669Z,16.10
2022-12-11T01:31:05.667Z,15.30
2022-12-11T01:31:15.609Z,15.90
2022-12-11T01:31:25.585Z,16.80
2022-12-11T01:31:35.633Z,17.70
2022-12-11T01:31:45.650Z,17.80
2022-12-11T01:31:55.558Z,15.90
2022-12-11T01:32:05.590Z,16.90
2022-12-11T01:32:15.579Z,18.60
2022-12-11T01:32:25.582Z,19.50
2022-12-11T01:32:35.563Z,19.60
2022-12-11T01:32:45.532Z,17.80
2022-12-11T01:32:55.561Z,18.70
2022-12-11T01:33:05.589Z,18.00
2022-12-11T01:33:15.579Z,19.40
2022-12-11T01:33:25.581Z,20.90
2022-12-11T01:33:35.645Z,19.90
2022-12-11T01:33:45.666Z,17.70
2022-12-11T01:33:55.617Z,17.30
2022-12-11T01:34:05.640Z,18.40
2022-12-11T01:34:15.560Z,21.90
2022-12-11T01:34:25.538Z,20.40
2022-12-11T01:34:35.526Z,19.70
2022-12-11T01:34:45.554Z,18.50
2022-12-11T01:34:55.614Z,18.30
2022-12-11T01:35:05.594Z,18.70
2022-12-11T01:35:15.635Z,17.30
2022-12-11T01:35:25.647Z,17.10
2022-12-11T01:35:35.610Z,17.50
2022-12-11T01:35:45.590Z,18.50
2022-12-11T01:35:55.568Z,20.70
2022-12-11T01:36:05.542Z,20.90
2022-12-11T01:36:15.594Z,20.10
2022-12-11T01:36:25.651Z,20.20
2022-12-11T01:36:35.647Z,19.50
2022-12-11T01:36:45.548Z,19.20
2022-12-11T01:36:55.681Z,17.80
2022-12-11T01:37:05.659Z,16.50
2022-12-11T01:37:15.629Z,16.40
2022-12-11T01:37:25.559Z,16.20
2022-12-11T01:37:35.596Z,17.20
2022-12-11T01:37:45.592Z,17.70
2022-12-11T01:37:55.546Z,19.40
2022-12-11T01:38:05.592Z,20.10
2022-12-11T01:38:15.563Z,21.50
2022-12-11T01:38:25.532Z,19.90
2022-12-11T01:38:35.554Z,19.00
2022-12-11T01:38:45.625Z,17.50
2022-12-11T01:38:55.647Z,17.80
2022-12-11T01:39:05.550Z,20.20
2022-12-11T01:39:15.603Z,20.40
2022-12-11T01:39:25.654Z,21.10
2022-12-11T01:39:35.559Z,18.60
2022-12-11T01:39:45.560Z,17.60
2022-12-11T01:39:55.626Z,17.80
2022-12-11T01:40:05.595Z,18.40
2022-12-11T01:40:15.615Z,17.90
2022-12-11T01:40:25.635Z,18.90
2022-12-11T01:40:35.541Z,18.30
2022-12-11T01:40:45.568Z,19.90
2022-12-11T01:40:55.631Z,18.50
2022-12-11T01:41:05.652Z,18.40
2022-12-11T01:41:15.584Z,18.50
2022-12-11T01:41:25.595Z,17.40
2022-12-11T01:41:35.632Z,17.80
2022-12-11T01:41:45.579Z,17.00
2022-12-11T01:41:55.561Z,17.00
2022-12-11T01:42:05.570Z,17.30
2022-12-11T01:42:15.567Z,18.30
2022-12-11T01:42:25.573Z,18.50
2022-12-11T01:42:35.591Z,18.30
2022-12-11T01:42:45.586Z,18.70
2022-12-11T01:42:55.608Z,19.40
2022-12-11T01:43:05.610Z,19.50
2022-12-11T01:43:15.526Z,19.10
2022-12-11T01:43:25.539Z,19.10
2022-12-11T01:43:35.657Z,20.30
2022-12-11T01:43:45.573Z,20.20
2022-12-11T01:43:55.523Z,18.70
2022-12-11T01:44:05.561Z,17.10
2022-12-11T01:44:15.649Z,15.90
2022-12-11T01:44:25.580Z,17.90
2022-12-11T01:44:35.546Z,18.10
2022-12-11T01:44:45.525Z,19.30
2022-12-11T01:44:55.566Z,17.90
2022-12-11T01:45:05.652Z,19.50
2022-12-11T01:45:15.654Z,18.30
2022-12-11T01:45:27.119Z,20.00
2022-12-11T01:45:35.585Z,20.00
2022-12-11T01:45:45.550Z,20.20
2022-12-11T01:45:55.678Z,18.80
2022-12-11T01:46:05.672Z,17.30
2022-12-11T01:46:15.608Z,17.50
2022-12-11T01:46:25.683Z,17.30
2022-12-11T01:46:35.655Z,18.50
2022-12-11T01:46:45.588Z,19.30
2022-12-11T01:46:55.540Z,19.20
2022-12-11T01:47:05.544Z,18.80
2022-12-11T01:47:15.644Z,19.00
2022-12-11T01:47:25.596Z,19.30
2022-12-11T01:47:35.640Z,19.10
2022-12-11T01:47:45.565Z,18.80
2022-12-11T01:47:55.550Z,19.10
2022-12-11T01:48:05.589Z,19.60
2022-12-11T01:48:15.605Z,19.00
2022-12-11T01:48:25.615Z,20.60
2022-12-11T01:48:40.681Z,20.20
2022-12-11T01:48:45.543Z,21.20
2022-12-11T01:48:55.571Z,20.80
2022-12-11T01:49:05.604Z,21.70
2022-12-11T01:49:15.610Z,21.20
2022-12-11T01:49:25.580Z,19.60
2022-12-11T01:49:35.590Z,19.50
2022-12-11T01:49:45.544Z,20.60
2022-12-11T01:49:55.562Z,22.10
2022-12-11T01:50:05.626Z,20.70
2022-12-11T01:50:15.579Z,21.20
2022-12-11T01:50:25.656Z,20.60
2022-12-11T01:50:35.658Z,22.40
2022-12-11T01:50:45.533Z,21.10
2022-12-11T01:50:55.553Z,21.70
2022-12-11T01:51:05.525Z,19.50
2022-12-11T01:51:15.605Z,19.50
2022-12-11T01:51:25.535Z,17.90
2022-12-11T01:51:35.538Z,18.50
2022-12-11T01:51:45.666Z,20.80
2022-12-11T01:51:55.522Z,20.80
2022-12-11T01:52:05.656Z,21.80
2022-12-11T01:52:15.544Z,19.30
2022-12-11T01:52:25.553Z,19.90
2022-12-11T01:52:35.622Z,21.40
2022-12-11T01:52:45.539Z,22.40
2022-12-11T01:52:55.586Z,20.80
2022-12-11T01:53:05.578Z,19.20
2022-12-11T01:53:15.604Z,16.90
2022-12-11T01:53:25.657Z,17.80
2022-12-11T01:53:35.571Z,18.10
2022-12-11T01:53:45.566Z,19.50
2022-12-11T01:53:55.526Z,22.00
2022-12-11T01:54:05.583Z,20.20
2022-12-11T01:54:15.647Z,20.70
2022-12-11T01:54:25.555Z,20.50
2022-12-11T01:54:35.531Z,21.90
2022-12-11T01:54:45.604Z,20.90
2022-12-11T01:54:55.555Z,18.70
2022-12-11T01:55:05.659Z,18.60
2022-12-11T01:55:15.650Z,20.50
2022-12-11T01:55:25.638Z,22.00
2022-12-11T01:55:35.572Z,23.20
2022-12-11T01:55:45.633Z,22.40
2022-12-11T01:55:55.557Z,22.20
2022-12-11T01:56:05.541Z,21.30
2022-12-11T01:56:15.640Z,20.40
2022-12-11T01:56:25.624Z,20.30
2022-12-11T01:56:35.578Z,19.00
2022-12-11T01:56:45.570Z,19.90
2022-12-11T01:56:55.534Z,18.50
2022-12-11T01:57:05.624Z,20.00
2022-12-11T01:57:15.616Z,19.10
2022-12-11T01:57:25.523Z,18.70
2022-12-11T01:57:35.616Z,19.20
2022-12-11T01:57:45.656Z,20.80
2022-12-11T01:58:00.512Z,23.10
2022-12-11T01:58:05.634Z,22.90
2022-12-11T01:58:15.528Z,23.10
2022-12-11T01:58:28.230Z,24.50
2022-12-11T01:58:35.637Z,24.10
2022-12-11T01:58:45.658Z,24.50
2022-12-11T01:58:55.630Z,25.70
2022-12-11T01:59:05.533Z,27.10
2022-12-11T01:59:15.534Z,27.00
2022-12-11T01:59:25.561Z,24.80
2022-12-11T01:59:35.585Z,25.30
2022-12-11T01:59:45.559Z,24.70
2022-12-11T01:59:55.543Z,29.10
2022-12-11T02:00:05.600Z,28.80
2022-12-11T02:00:15.627Z,30.60
2022-12-11T02:00:25.590Z,28.10
2022-12-11T02:00:35.526Z,29.10
2022-12-11T02:00:45.638Z,29.40
2022-12-11T02:00:55.677Z,29.80
2022-12-11T02:01:05.658Z,29.20
2022-12-11T02:01:15.697Z,25.90
2022-12-11T02:01:25.694Z,24.50
2022-12-11T02:01:35.598Z,22.90
2022-12-11T02:01:45.613Z,25.00
2022-12-11T02:01:55.604Z,24.20
2022-12-11T02:02:05.713Z,24.40
2022-12-11T02:02:15.603Z,26.00
2022-12-11T02:02:25.569Z,28.30
2022-12-11T02:02:35.611Z,27.50
2022-12-11T02:02:45.729Z,25.10
2022-12-11T02:02:55.680Z,25.40
2022-12-11T02:03:05.643Z,27.60
2022-12-11T02:03:15.527Z,26.90
2022-12-11T02:03:25.592Z,24.30
2022-12-11T02:03:35.528Z,23.70
2022-12-11T02:03:45.637Z,26.10
2022-12-11T02:03:55.639Z,26.10
2022-12-11T02:04:05.646Z,25.00
2022-12-11T02:04:15.543Z,22.30
2022-12-11T02:04:25.560Z,22.10
2022-12-11T02:04:35.641Z,22.10
2022-12-11T02:04:45.558Z,22.70
2022-12-11T02:04:55.578Z,23.10
2022-12-11T02:05:05.634Z,23.90
2022-12-11T02:05:15.624Z,23.50
2022-12-11T02:05:25.602Z,24.30
2022-12-11T02:05:35.538Z,22.10
2022-12-11T02:05:45.597Z,22.90
2022-12-11T02:05:55.624Z,20.60
2022-12-11T02:06:05.559Z,21.40
2022-12-11T02:06:15.637Z,19.70
2022-12-11T02:06:25.601Z,21.10
2022-12-11T02:06:35.648Z,21.10
2022-12-11T02:06:45.546Z,20.50
2022-12-11T02:06:55.546Z,20.00
2022-12-11T02:07:05.584Z,20.00
2022-12-11T02:07:15.581Z,20.10
2022-12-11T02:07:25.572Z,19.20
2022-12-11T02:07:35.525Z,20.90
2022-12-11T02:07:45.660Z,22.30
2022-12-11T02:08:00.569Z,23.00
2022-12-11T02:08:05.705Z,21.90
2022-12-11T02:08:15.568Z,20.70
2022-12-11T02:08:25.579Z,20.20
2022-12-11T02:08:35.535Z,19.10
2022-12-11T02:08:45.540Z,19.10